createdAt,value
2018-10-09T00:02:06.344Z,13.10
2018-10-09T00:04:35.544Z,13.10
2018-10-09T00:07:04.781Z,13.10
2018-10-09T00:09:33.955Z,13.10
2018-10-09T00:12:03.121Z,13.10
2018-10-09T00:14:32.315Z,13.10
2018-10-09T00:17:01.572Z,13.10
2018-10-09T00:19:30.731Z,13.00
2018-10-09T00:22:00.000Z,13.00
2018-10-09T00:24:29.293Z,13.00
2018-10-09T00:26:58.904Z,13.00
2018-10-09T00:29:28.428Z,13.00
2018-10-09T00:31:57.829Z,12.90
2018-10-09T00:34:27.542Z,12.90
2018-10-09T00:36:56.740Z,12.90
2018-10-09T00:39:26.182Z,12.90
2018-10-09T00:41:55.425Z,12.80
2018-10-09T00:44:24.959Z,12.80
2018-10-09T00:46:54.327Z,12.80
2018-10-09T00:49:23.520Z,12.80
2018-10-09T00:51:52.682Z,12.80
2018-10-09T00:54:21.895Z,12.70
2018-10-09T00:56:51.039Z,12.70
2018-10-09T00:59:20.228Z,12.60
2018-10-09T01:01:49.379Z,12.60
2018-10-09T01:04:18.636Z,12.60
2018-10-09T01:06:47.883Z,12.60
2018-10-09T01:09:17.118Z,12.60
2018-10-09T01:11:46.314Z,12.60
2018-10-09T01:14:15.472Z,12.50
2018-10-09T01:16:44.644Z,12.50
2018-10-09T01:19:13.821Z,12.50
2018-10-09T01:21:43.075Z,12.40
2018-10-09T01:24:12.579Z,12.40
2018-10-09T01:26:41.840Z,12.40
2018-10-09T01:29:10.966Z,12.40
2018-10-09T01:31:40.122Z,12.40
2018-10-09T01:34:09.283Z,12.30
2018-10-09T01:36:38.428Z,12.30
2018-10-09T01:39:09.261Z,12.30
2018-10-09T01:41:38.423Z,12.30
2018-10-09T01:44:07.943Z,12.20
2018-10-09T01:46:37.228Z,12.20
2018-10-09T01:49:06.385Z,12.20
2018-10-09T01:51:35.664Z,12.10
2018-10-09T01:54:04.877Z,12.10
2018-10-09T01:56:34.161Z,12.10
2018-10-09T01:59:03.666Z,12.10
2018-10-09T02:01:33.500Z,12.10
2018-10-09T02:04:03.061Z,12.00
2018-10-09T02:06:32.512Z,12.00
2018-10-09T02:09:01.808Z,12.10
2018-10-09T02:11:31.357Z,12.00
2018-10-09T02:14:00.520Z,12.00
2018-10-09T02:16:29.708Z,12.00
2018-10-09T02:18:58.974Z,12.00
2018-10-09T02:21:28.136Z,11.90
2018-10-09T02:23:57.326Z,11.90
2018-10-09T02:26:26.542Z,11.90
2018-10-09T02:28:55.762Z,11.90
2018-10-09T02:31:25.216Z,11.90
2018-10-09T02:33:54.712Z,11.80
2018-10-09T02:36:24.024Z,11.80
2018-10-09T02:38:53.617Z,11.80
2018-10-09T02:41:23.113Z,11.80
2018-10-09T02:43:52.545Z,11.80
2018-10-09T02:46:21.924Z,11.70
2018-10-09T02:48:51.482Z,11.70
2018-10-09T02:51:20.983Z,11.70
2018-10-09T02:53:50.342Z,11.70
2018-10-09T02:56:19.779Z,11.70
2018-10-09T02:58:49.555Z,11.70
2018-10-09T03:01:18.817Z,11.70
2018-10-09T03:03:48.098Z,11.60
2018-10-09T03:06:17.670Z,11.70
2018-10-09T03:08:47.172Z,11.70
2018-10-09T03:11:16.378Z,11.60
2018-10-09T03:13:45.849Z,11.60
2018-10-09T03:16:15.371Z,11.60
2018-10-09T03:18:44.631Z,11.60
2018-10-09T03:21:14.289Z,11.60
2018-10-09T03:23:43.597Z,11.60
2018-10-09T03:26:12.838Z,11.60
2018-10-09T03:28:42.699Z,11.60
2018-10-09T03:31:12.314Z,11.60
2018-10-09T03:33:41.482Z,11.50
2018-10-09T03:36:11.014Z,11.50
2018-10-09T03:38:40.147Z,11.50
2018-10-09T03:41:09.721Z,11.50
2018-10-09T03:43:38.863Z,11.50
2018-10-09T03:46:08.123Z,11.50
2018-10-09T03:48:37.758Z,11.50
2018-10-09T03:51:06.946Z,11.50
2018-10-09T03:53:36.193Z,11.50
2018-10-09T03:56:05.416Z,11.40
2018-10-09T03:58:34.659Z,11.40
2018-10-09T04:01:03.977Z,11.40
2018-10-09T04:03:33.240Z,11.40
2018-10-09T04:06:02.437Z,11.40
2018-10-09T04:08:31.640Z,11.30
2018-10-09T04:11:00.835Z,11.30
2018-10-09T04:13:30.181Z,11.30
2018-10-09T04:15:59.528Z,11.30
2018-10-09T04:18:28.936Z,11.30
2018-10-09T04:20:58.436Z,11.30
2018-10-09T04:23:28.008Z,11.20
2018-10-09T04:25:57.494Z,11.20
2018-10-09T04:28:27.116Z,11.20
2018-10-09T04:30:56.477Z,11.20
2018-10-09T04:33:26.161Z,11.20
2018-10-09T04:35:55.392Z,11.30
2018-10-09T04:38:24.662Z,11.20
2018-10-09T04:40:53.828Z,11.20
2018-10-09T04:43:22.990Z,11.20
2018-10-09T04:45:52.208Z,11.10
2018-10-09T04:48:21.451Z,11.10
2018-10-09T04:50:50.582Z,11.00
2018-10-09T04:53:19.898Z,11.00
2018-10-09T04:55:49.079Z,11.00
2018-10-09T04:58:18.380Z,11.00
2018-10-09T05:00:47.894Z,11.00
2018-10-09T05:03:17.004Z,11.00
2018-10-09T05:05:46.174Z,11.00
2018-10-09T05:08:15.375Z,11.10
2018-10-09T05:10:44.543Z,11.10
2018-10-09T05:13:13.814Z,11.10
2018-10-09T05:15:42.950Z,11.00
2018-10-09T05:18:12.139Z,11.00
2018-10-09T05:20:41.507Z,11.10
2018-10-09T05:23:10.648Z,11.20
2018-10-09T05:25:39.860Z,11.20
2018-10-09T05:28:09.346Z,11.20
2018-10-09T05:30:43.850Z,11.20
2018-10-09T05:33:13.074Z,11.30
2018-10-09T05:35:42.286Z,11.30
2018-10-09T05:38:11.544Z,11.40
2018-10-09T05:40:40.815Z,11.50
2018-10-09T05:43:10.043Z,11.60
2018-10-09T05:45:39.779Z,11.70
2018-10-09T05:48:10.027Z,11.80
2018-10-09T05:50:39.342Z,11.90
2018-10-09T05:53:08.855Z,12.10
2018-10-09T05:55:38.420Z,12.20
2018-10-09T05:58:08.015Z,12.40
2018-10-09T06:00:37.218Z,12.50
2018-10-09T06:03:06.645Z,12.70
2018-10-09T06:05:35.986Z,12.90
2018-10-09T06:08:05.145Z,13.00
2018-10-09T06:10:34.458Z,13.10
2018-10-09T06:13:03.684Z,13.30
2018-10-09T06:15:32.884Z,13.40
2018-10-09T06:18:02.005Z,13.60
2018-10-09T06:20:31.169Z,13.70
2018-10-09T06:23:00.445Z,13.90
2018-10-09T06:25:29.644Z,14.00
2018-10-09T06:27:59.123Z,14.20
2018-10-09T06:30:28.891Z,14.30
2018-10-09T06:32:58.646Z,14.50
2018-10-09T06:35:28.688Z,14.60
2018-10-09T06:37:58.042Z,14.80
2018-10-09T06:40:27.284Z,15.00
2018-10-09T06:42:56.647Z,15.10
2018-10-09T06:45:26.368Z,15.20
2018-10-09T06:47:55.985Z,15.40
2018-10-09T06:50:25.623Z,15.60
2018-10-09T06:52:55.201Z,15.80
2018-10-09T06:55:24.335Z,15.90
2018-10-09T06:57:53.804Z,16.10
2018-10-09T07:02:52.119Z,16.50
2018-10-09T07:05:21.606Z,16.70
2018-10-09T07:07:51.138Z,16.90
2018-10-09T07:10:20.977Z,17.00
2018-10-09T07:12:50.344Z,17.20
2018-10-09T07:15:20.035Z,17.40
2018-10-09T07:17:49.463Z,17.50
2018-10-09T07:20:18.842Z,17.70
2018-10-09T07:22:48.146Z,17.90
2018-10-09T07:25:17.576Z,18.00
2018-10-09T07:27:47.057Z,18.20
2018-10-09T07:30:16.435Z,18.40
2018-10-09T07:32:45.820Z,18.60
2018-10-09T07:35:15.225Z,18.70
2018-10-09T07:37:44.551Z,18.90
2018-10-09T07:40:13.770Z,19.10
2018-10-09T07:42:43.080Z,19.40
2018-10-09T07:45:12.200Z,19.50
2018-10-09T07:47:41.512Z,19.80
2018-10-09T07:50:10.921Z,20.00
2018-10-09T07:52:40.249Z,20.30
2018-10-09T07:55:09.387Z,20.70
2018-10-09T07:57:38.759Z,21.40
2018-10-09T08:00:08.160Z,22.00
2018-10-09T08:02:37.290Z,23.20
2018-10-09T08:05:07.726Z,26.00
2018-10-09T08:07:37.250Z,26.10
2018-10-09T08:10:06.784Z,27.60
2018-10-09T08:12:36.147Z,28.80
2018-10-09T08:15:05.379Z,29.80
2018-10-09T08:17:34.582Z,30.70
2018-10-09T08:20:04.308Z,31.60
2018-10-09T08:22:33.661Z,31.90
2018-10-09T08:25:02.982Z,32.10
2018-10-09T08:27:32.321Z,32.40
2018-10-09T08:30:01.823Z,32.90
2018-10-09T08:32:30.965Z,33.40
2018-10-09T08:35:00.335Z,33.90
2018-10-09T08:37:29.749Z,34.40
2018-10-09T08:39:59.351Z,34.80
2018-10-09T08:42:28.489Z,35.40
2018-10-09T08:44:57.730Z,35.70
2018-10-09T08:47:26.946Z,35.60
2018-10-09T08:49:56.211Z,36.00
2018-10-09T08:52:25.561Z,36.30
2018-10-09T08:54:54.850Z,36.70
2018-10-09T08:57:24.039Z,37.00
2018-10-09T08:59:53.234Z,37.50
2018-10-09T09:02:22.736Z,37.90
2018-10-09T09:04:51.880Z,38.30
2018-10-09T09:07:21.192Z,38.50
2018-10-09T09:09:50.663Z,38.40
2018-10-09T09:12:19.807Z,38.70
2018-10-09T09:14:49.111Z,39.10
2018-10-09T09:17:18.278Z,39.60
2018-10-09T09:20:06.763Z,40.10
2018-10-09T09:22:35.846Z,40.80
2018-10-09T09:25:05.050Z,41.60
2018-10-09T09:27:34.287Z,42.00
2018-10-09T09:30:03.476Z,42.10
2018-10-09T09:32:32.597Z,42.30
2018-10-09T09:35:01.869Z,42.50
2018-10-09T09:37:30.945Z,42.70
2018-10-09T09:40:00.166Z,42.80
2018-10-09T09:42:29.313Z,43.20
2018-10-09T09:44:58.609Z,43.60
2018-10-09T09:47:27.825Z,43.50
2018-10-09T09:49:56.960Z,43.50
2018-10-09T09:52:26.172Z,43.60
2018-10-09T09:54:55.384Z,43.60
2018-10-09T09:57:24.553Z,43.50
2018-10-09T09:59:53.771Z,43.60
2018-10-09T10:02:22.949Z,43.60
2018-10-09T10:04:52.102Z,43.10
2018-10-09T10:07:21.208Z,42.60
2018-10-09T10:09:50.344Z,41.90
2018-10-09T10:12:19.423Z,41.20
2018-10-09T10:14:48.625Z,40.60
2018-10-09T10:17:17.715Z,40.20
2018-10-09T10:19:46.878Z,39.80
2018-10-09T10:22:16.055Z,39.50
2018-10-09T10:24:45.204Z,39.50
2018-10-09T10:27:14.437Z,39.50
2018-10-09T10:29:43.609Z,39.70
2018-10-09T10:32:12.751Z,40.20
2018-10-09T10:34:41.888Z,40.10
2018-10-09T10:37:11.137Z,39.90
2018-10-09T10:39:40.301Z,40.00
2018-10-09T10:42:09.455Z,40.50
2018-10-09T10:44:38.618Z,40.60
2018-10-09T10:47:07.794Z,40.50
2018-10-09T10:49:36.961Z,39.90
2018-10-09T10:52:06.032Z,40.10
2018-10-09T10:54:35.171Z,40.80
2018-10-09T10:57:04.344Z,41.50
2018-10-09T10:59:33.487Z,42.50
2018-10-09T11:02:02.774Z,43.70
2018-10-09T11:04:31.873Z,44.30
2018-10-09T11:07:01.028Z,45.00
2018-10-09T11:09:30.199Z,45.70
2018-10-09T11:11:59.366Z,46.30
2018-10-09T11:14:28.511Z,46.80
2018-10-09T11:16:57.659Z,47.40
2018-10-09T11:19:26.834Z,47.70
2018-10-09T11:21:55.978Z,47.90
2018-10-09T11:24:25.155Z,48.10
2018-10-09T11:26:54.337Z,48.50
2018-10-09T11:29:23.577Z,48.70
2018-10-09T11:31:52.762Z,48.90
2018-10-09T11:34:21.864Z,49.00
2018-10-09T11:36:50.990Z,49.30
2018-10-09T11:39:22.404Z,49.90
2018-10-09T11:41:51.621Z,49.90
2018-10-09T11:44:20.824Z,50.20
2018-10-09T11:46:50.248Z,50.30
2018-10-09T11:49:19.347Z,50.40
2018-10-09T11:51:48.557Z,49.60
2018-10-09T11:54:17.701Z,48.90
2018-10-09T11:56:46.825Z,48.90
2018-10-09T11:59:15.995Z,49.00
2018-10-09T12:01:45.120Z,48.60
2018-10-09T12:04:14.276Z,47.80
2018-10-09T12:06:43.442Z,47.30
2018-10-09T12:09:13.740Z,47.80
2018-10-09T12:11:43.472Z,48.10
2018-10-09T12:14:13.341Z,48.80
2018-10-09T12:16:42.491Z,49.20
2018-10-09T12:19:11.644Z,49.60
2018-10-09T12:21:40.819Z,49.50
2018-10-09T12:24:09.908Z,49.20
2018-10-09T12:26:39.048Z,48.00
2018-10-09T12:29:08.273Z,47.90
2018-10-09T12:31:37.606Z,45.90
2018-10-09T12:34:07.470Z,44.70
2018-10-09T12:36:36.780Z,43.60
2018-10-09T12:39:09.634Z,40.90
2018-10-09T12:41:38.791Z,38.90
2018-10-09T12:44:08.067Z,37.40
2018-10-09T12:46:37.614Z,36.30
2018-10-09T12:49:06.728Z,35.20
2018-10-09T12:51:36.379Z,34.70
2018-10-09T12:54:05.509Z,33.60
2018-10-09T12:56:34.728Z,32.50
2018-10-09T12:59:03.903Z,31.60
2018-10-09T13:01:33.080Z,30.20
2018-10-09T13:04:02.250Z,29.80
2018-10-09T13:06:31.525Z,29.60
2018-10-09T13:09:00.720Z,29.40
2018-10-09T13:11:29.851Z,28.50
2018-10-09T13:13:59.047Z,28.00
2018-10-09T13:16:28.172Z,28.20
2018-10-09T13:18:57.401Z,28.10
2018-10-09T13:21:26.776Z,28.00
2018-10-09T13:23:55.911Z,27.60
2018-10-09T13:26:25.112Z,27.50
2018-10-09T13:28:54.311Z,27.80
2018-10-09T13:31:23.498Z,27.60
2018-10-09T13:33:52.686Z,27.20
2018-10-09T13:36:21.912Z,26.90
2018-10-09T13:38:51.057Z,27.20
2018-10-09T13:41:20.328Z,27.10
2018-10-09T13:43:49.487Z,26.50
2018-10-09T13:46:18.612Z,26.30
2018-10-09T13:48:47.982Z,26.20
2018-10-09T13:51:17.142Z,26.30
2018-10-09T13:53:46.269Z,26.00
2018-10-09T13:56:15.448Z,25.90
2018-10-09T13:58:44.558Z,25.80
2018-10-09T14:01:13.688Z,25.60
2018-10-09T14:03:42.803Z,25.30
2018-10-09T14:06:12.065Z,25.00
2018-10-09T14:08:41.091Z,25.10
2018-10-09T14:11:10.304Z,24.90
2018-10-09T14:13:39.455Z,24.80
2018-10-09T14:16:08.574Z,24.60
2018-10-09T14:18:37.712Z,24.70
2018-10-09T14:21:07.016Z,24.50
2018-10-09T14:23:36.206Z,24.40
2018-10-09T14:26:05.407Z,24.30
2018-10-09T14:28:34.690Z,24.20
2018-10-09T14:31:03.847Z,24.20
2018-10-09T14:33:33.069Z,23.90
2018-10-09T14:36:02.183Z,24.00
2018-10-09T14:38:31.417Z,24.10
2018-10-09T14:41:00.835Z,24.10
2018-10-09T14:43:29.980Z,23.90
2018-10-09T14:45:59.263Z,23.90
2018-10-09T14:48:28.375Z,23.70
2018-10-09T14:50:57.570Z,23.60
2018-10-09T14:53:27.084Z,23.50
2018-10-09T14:55:56.456Z,23.30
2018-10-09T14:58:25.622Z,23.20
2018-10-09T15:00:54.820Z,23.00
2018-10-09T15:03:24.111Z,23.10
2018-10-09T15:05:53.338Z,23.00
2018-10-09T15:08:22.521Z,23.00
2018-10-09T15:10:51.648Z,22.90
2018-10-09T15:13:20.803Z,22.90
2018-10-09T15:15:50.002Z,22.80
2018-10-09T15:18:19.216Z,22.80
2018-10-09T15:20:48.447Z,22.80
2018-10-09T15:23:17.641Z,22.70
2018-10-09T15:25:46.840Z,22.60
2018-10-09T15:28:16.380Z,22.50
2018-10-09T15:30:45.511Z,22.60
2018-10-09T15:33:14.652Z,22.50
2018-10-09T15:35:43.842Z,22.50
2018-10-09T15:38:13.031Z,22.50
2018-10-09T15:40:42.182Z,22.50
2018-10-09T15:43:11.417Z,22.50
2018-10-09T15:45:40.632Z,22.40
2018-10-09T15:48:09.905Z,22.40
2018-10-09T15:50:39.065Z,22.30
2018-10-09T15:53:08.250Z,22.20
2018-10-09T15:55:37.392Z,22.10
2018-10-09T15:58:06.740Z,22.00
2018-10-09T16:00:39.630Z,21.90
2018-10-09T16:03:09.528Z,21.80
2018-10-09T16:05:38.668Z,21.70
2018-10-09T16:08:07.924Z,21.70
2018-10-09T16:10:37.058Z,21.70
2018-10-09T16:13:06.253Z,21.70
2018-10-09T16:15:35.493Z,21.60
2018-10-09T16:18:06.091Z,21.50
2018-10-09T16:20:35.533Z,21.40
2018-10-09T16:23:04.764Z,21.30
2018-10-09T16:25:34.228Z,21.30
2018-10-09T16:28:03.530Z,21.20
2018-10-09T16:30:32.675Z,21.10
2018-10-09T16:33:01.861Z,21.00
2018-10-09T16:35:31.027Z,21.00
2018-10-09T16:38:00.662Z,20.90
2018-10-09T16:40:29.849Z,20.80
2018-10-09T16:42:58.958Z,20.80
2018-10-09T16:45:28.129Z,20.70
2018-10-09T16:47:57.291Z,20.60
2018-10-09T16:50:26.496Z,20.60
2018-10-09T16:52:55.678Z,20.50
2018-10-09T16:55:24.838Z,20.40
2018-10-09T16:57:54.043Z,20.40
2018-10-09T17:00:23.251Z,20.40
2018-10-09T17:02:52.746Z,20.30
2018-10-09T17:05:22.315Z,20.40
2018-10-09T17:07:51.511Z,20.30
2018-10-09T17:10:20.677Z,20.30
2018-10-09T17:12:49.864Z,20.20
2018-10-09T17:15:19.136Z,20.10
2018-10-09T17:17:48.277Z,20.00
2018-10-09T17:20:17.458Z,20.00
2018-10-09T17:22:46.611Z,19.90
2018-10-09T17:25:15.817Z,19.90
2018-10-09T17:27:44.913Z,19.80
2018-10-09T17:30:14.081Z,19.70
2018-10-09T17:32:43.342Z,19.70
2018-10-09T17:35:12.630Z,19.60
2018-10-09T17:37:41.951Z,19.60
2018-10-09T17:40:11.612Z,19.50
2018-10-09T17:42:40.760Z,19.50
2018-10-09T17:45:09.932Z,19.50
2018-10-09T17:47:39.104Z,19.50
2018-10-09T17:50:08.646Z,19.40
2018-10-09T17:52:37.895Z,19.40
2018-10-09T17:55:07.257Z,19.40
2018-10-09T17:57:36.439Z,19.30
2018-10-09T18:00:05.994Z,19.20
2018-10-09T18:02:35.152Z,19.20
2018-10-09T18:05:04.449Z,19.10
2018-10-09T18:07:34.450Z,19.10
2018-10-09T18:10:03.648Z,19.10
2018-10-09T18:12:32.754Z,19.00
2018-10-09T18:15:01.966Z,19.00
2018-10-09T18:17:31.062Z,18.90
2018-10-09T18:20:00.272Z,18.90
2018-10-09T18:22:29.402Z,18.90
2018-10-09T18:24:58.552Z,18.90
2018-10-09T18:27:27.694Z,18.80
2018-10-09T18:29:57.019Z,18.80
2018-10-09T18:32:26.334Z,18.80
2018-10-09T18:34:55.482Z,18.80
2018-10-09T18:37:24.651Z,18.70
2018-10-09T18:39:53.770Z,18.80
2018-10-09T18:42:23.319Z,18.80
2018-10-09T18:44:52.394Z,18.80
2018-10-09T18:47:38.774Z,18.80
2018-10-09T18:50:08.011Z,18.70
2018-10-09T18:52:37.187Z,18.70
2018-10-09T18:55:07.040Z,18.60
2018-10-09T18:57:36.157Z,18.60
2018-10-09T19:00:05.578Z,18.50
2018-10-09T19:02:34.781Z,18.50
2018-10-09T19:05:03.896Z,18.50
2018-10-09T19:07:33.039Z,18.50
2018-10-09T19:10:02.224Z,18.40
2018-10-09T19:12:31.493Z,18.30
2018-10-09T19:15:00.676Z,18.30
2018-10-09T19:17:29.875Z,18.20
2018-10-09T19:19:59.002Z,18.20
2018-10-09T19:22:28.208Z,18.10
2018-10-09T19:24:57.414Z,18.10
2018-10-09T19:27:26.758Z,18.00
2018-10-09T19:29:56.018Z,17.90
2018-10-09T19:32:25.269Z,17.80
2018-10-09T19:34:54.335Z,17.80
2018-10-09T19:37:23.828Z,17.80
2018-10-09T19:39:53.042Z,17.70
2018-10-09T19:42:22.305Z,17.70
2018-10-09T19:44:51.490Z,17.70
2018-10-09T19:47:20.676Z,17.70
2018-10-09T19:49:50.019Z,17.70
2018-10-09T19:52:19.200Z,17.70
2018-10-09T19:54:48.333Z,17.70
2018-10-09T19:57:17.547Z,17.60
2018-10-09T19:59:46.669Z,17.50
2018-10-09T20:02:15.918Z,17.40
2018-10-09T20:04:45.053Z,17.40
2018-10-09T20:07:14.260Z,17.30
2018-10-09T20:09:43.478Z,17.20
2018-10-09T20:12:12.808Z,17.10
2018-10-09T20:14:42.076Z,17.10
2018-10-09T20:17:11.185Z,17.00
2018-10-09T20:19:40.342Z,17.00
2018-10-09T20:22:10.517Z,16.90
2018-10-09T20:24:39.798Z,16.90
2018-10-09T20:27:09.059Z,16.80
2018-10-09T20:29:38.180Z,16.80
2018-10-09T20:32:07.436Z,16.70
2018-10-09T20:34:36.885Z,16.70
2018-10-09T20:37:06.038Z,16.70
2018-10-09T20:39:35.174Z,16.70
2018-10-09T20:42:04.369Z,16.60
2018-10-09T20:44:33.505Z,16.60
2018-10-09T20:47:02.726Z,16.50
2018-10-09T20:49:31.927Z,16.50
2018-10-09T20:52:01.199Z,16.50
2018-10-09T20:54:30.518Z,16.50
2018-10-09T20:56:59.610Z,16.50
2018-10-09T21:01:57.977Z,16.50
2018-10-09T21:04:27.224Z,16.50
2018-10-09T21:06:56.352Z,16.50
2018-10-09T21:09:25.482Z,16.50
2018-10-09T21:11:54.599Z,16.50
2018-10-09T21:14:23.767Z,16.50
2018-10-09T21:16:52.930Z,16.40
2018-10-09T21:19:22.056Z,16.40
2018-10-09T21:21:51.187Z,16.40
2018-10-09T21:24:20.321Z,16.30
2018-10-09T21:26:49.425Z,16.30
2018-10-09T21:29:18.542Z,16.30
2018-10-09T21:31:47.685Z,16.30
2018-10-09T21:34:17.107Z,16.20
2018-10-09T21:36:46.249Z,16.20
2018-10-09T21:39:15.424Z,16.10
2018-10-09T21:41:44.635Z,16.10
2018-10-09T21:44:13.810Z,16.10
2018-10-09T21:46:43.054Z,16.00
2018-10-09T21:49:12.234Z,16.00
2018-10-09T21:51:41.362Z,16.00
2018-10-09T21:54:10.519Z,16.00
2018-10-09T21:56:39.646Z,16.00
2018-10-09T21:59:08.808Z,15.90
2018-10-09T22:01:37.914Z,15.90
2018-10-09T22:04:07.062Z,15.90
2018-10-09T22:06:36.213Z,15.80
2018-10-09T22:09:07.297Z,15.80
2018-10-09T22:11:36.464Z,15.70
2018-10-09T22:14:05.726Z,15.70
2018-10-09T22:16:34.882Z,15.70
2018-10-09T22:19:04.128Z,15.60
2018-10-09T22:21:33.290Z,15.60
2018-10-09T22:24:02.451Z,15.60
2018-10-09T22:26:31.587Z,15.60
2018-10-09T22:29:00.880Z,15.60
2018-10-09T22:31:29.961Z,15.50
2018-10-09T22:33:59.102Z,15.50
2018-10-09T22:36:28.233Z,15.50
2018-10-09T22:38:57.368Z,15.40
2018-10-09T22:41:26.471Z,15.50
2018-10-09T22:43:55.605Z,15.40
2018-10-09T22:46:24.687Z,15.40
2018-10-09T22:48:53.843Z,15.40
2018-10-09T22:51:22.984Z,15.30
2018-10-09T22:53:52.186Z,15.30
2018-10-09T22:56:21.299Z,15.30
2018-10-09T22:58:50.478Z,15.30
2018-10-09T23:01:19.625Z,15.20
2018-10-09T23:03:48.799Z,15.20
2018-10-09T23:06:17.939Z,15.20
2018-10-09T23:08:47.106Z,15.20
2018-10-09T23:11:16.235Z,15.20
2018-10-09T23:13:45.354Z,15.20
2018-10-09T23:16:14.525Z,15.20
2018-10-09T23:18:43.643Z,15.20
2018-10-09T23:21:12.729Z,15.20
2018-10-09T23:23:41.925Z,15.20
2018-10-09T23:26:11.015Z,15.20
2018-10-09T23:28:40.155Z,15.20
2018-10-09T23:31:09.319Z,15.20
2018-10-09T23:33:38.619Z,15.10
2018-10-09T23:36:07.784Z,15.10
2018-10-09T23:38:36.897Z,15.00
2018-10-09T23:41:06.423Z,15.00
2018-10-09T23:43:35.551Z,14.90
2018-10-09T23:46:04.725Z,14.90
2018-10-09T23:48:33.851Z,14.90
2018-10-09T23:51:03.005Z,14.80
2018-10-09T23:53:32.177Z,14.80
2018-10-09T23:56:01.296Z,14.70
2018-10-09T23:58:30.475Z,14.70
